sensor_id;sensor_type;location;lat;lon;timestamp;temperature;humidity
42201;DHT22;27869;51.442;7.540;2024-03-29T00:01:49;8.10;99.90
42201;DHT22;27869;51.442;7.540;2024-03-29T00:04:16;8.10;99.90
42201;DHT22;27869;51.442;7.540;2024-03-29T00:06:42;8.10;99.90
42201;DHT22;27869;51.442;7.540;2024-03-29T00:09:08;8.10;99.90
42201;DHT22;27869;51.442;7.540;2024-03-29T00:11:34;8.10;99.90
42201;DHT22;27869;51.442;7.540;2024-03-29T00:14:00;8.10;99.90
42201;DHT22;27869;51.442;7.540;2024-03-29T00:16:26;8.00;99.90
42201;DHT22;27869;51.442;7.540;2024-03-29T00:18:52;8.00;99.90
42201;DHT22;27869;51.442;7.540;2024-03-29T00:21:20;8.00;99.90
42201;DHT22;27869;51.442;7.540;2024-03-29T00:23:46;8.00;99.90
42201;DHT22;27869;51.442;7.540;2024-03-29T00:26:12;8.00;99.90
42201;DHT22;27869;51.442;7.540;2024-03-29T00:28:38;8.00;99.90
42201;DHT22;27869;51.442;7.540;2024-03-29T00:31:04;8.00;99.90
42201;DHT22;27869;51.442;7.540;2024-03-29T00:33:30;8.00;99.90
42201;DHT22;27869;51.442;7.540;2024-03-29T00:35:56;8.00;99.90
42201;DHT22;27869;51.442;7.540;2024-03-29T00:38:23;8.00;99.90
42201;DHT22;27869;51.442;7.540;2024-03-29T00:40:49;8.00;99.90
42201;DHT22;27869;51.442;7.540;2024-03-29T00:43:15;8.00;99.90
42201;DHT22;27869;51.442;7.540;2024-03-29T00:45:41;8.00;99.90
42201;DHT22;27869;51.442;7.540;2024-03-29T00:48:07;8.00;99.90
42201;DHT22;27869;51.442;7.540;2024-03-29T00:50:33;8.00;99.90
42201;DHT22;27869;51.442;7.540;2024-03-29T00:52:59;8.00;99.90
42201;DHT22;27869;51.442;7.540;2024-03-29T00:55:27;8.00;99.90
42201;DHT22;27869;51.442;7.540;2024-03-29T00:57:53;8.00;99.90
42201;DHT22;27869;51.442;7.540;2024-03-29T01:00:19;8.00;99.90
42201;DHT22;27869;51.442;7.540;2024-03-29T01:02:45;8.00;99.90
42201;DHT22;27869;51.442;7.540;2024-03-29T01:05:11;8.00;99.90
42201;DHT22;27869;51.442;7.540;2024-03-29T01:07:38;8.00;99.90
42201;DHT22;27869;51.442;7.540;2024-03-29T01:10:06;7.90;99.90
42201;DHT22;27869;51.442;7.540;2024-03-29T01:12:33;7.90;99.90
42201;DHT22;27869;51.442;7.540;2024-03-29T01:14:59;7.90;99.90
42201;DHT22;27869;51.442;7.540;2024-03-29T01:17:25;7.90;99.90
42201;DHT22;27869;51.442;7.540;2024-03-29T01:19:51;7.90;99.90
42201;DHT22;27869;51.442;7.540;2024-03-29T01:22:17;7.90;99.90
42201;DHT22;27869;51.442;7.540;2024-03-29T01:24:43;7.90;99.90
42201;DHT22;27869;51.442;7.540;2024-03-29T01:27:09;7.90;99.90
42201;DHT22;27869;51.442;7.540;2024-03-29T01:29:36;7.90;99.90
42201;DHT22;27869;51.442;7.540;2024-03-29T01:32:02;7.90;99.90
42201;DHT22;27869;51.442;7.540;2024-03-29T01:34:28;8.00;99.90
42201;DHT22;27869;51.442;7.540;2024-03-29T01:36:54;8.00;99.90
42201;DHT22;27869;51.442;7.540;2024-03-29T01:39:20;8.00;99.90
42201;DHT22;27869;51.442;7.540;2024-03-29T01:41:46;8.00;99.90
42201;DHT22;27869;51.442;7.540;2024-03-29T01:44:12;8.00;99.90
42201;DHT22;27869;51.442;7.540;2024-03-29T01:46:40;8.00;99.90
42201;DHT22;27869;51.442;7.540;2024-03-29T01:49:07;8.00;99.90
42201;DHT22;27869;51.442;7.540;2024-03-29T01:51:37;8.00;99.90
42201;DHT22;27869;51.442;7.540;2024-03-29T01:54:04;8.00;99.90
42201;DHT22;27869;51.442;7.540;2024-03-29T01:56:31;8.00;99.90
42201;DHT22;27869;51.442;7.540;2024-03-29T01:58:59;8.00;99.90
42201;DHT22;27869;51.442;7.540;2024-03-29T02:01:27;8.00;99.90
42201;DHT22;27869;51.442;7.540;2024-03-29T02:03:55;8.00;99.90
42201;DHT22;27869;51.442;7.540;2024-03-29T02:06:23;8.00;99.90
42201;DHT22;27869;51.442;7.540;2024-03-29T02:08:52;8.00;99.90
42201;DHT22;27869;51.442;7.540;2024-03-29T02:11:19;8.10;99.90
42201;DHT22;27869;51.442;7.540;2024-03-29T02:13:47;8.10;99.90
42201;DHT22;27869;51.442;7.540;2024-03-29T02:16:13;8.10;99.90
42201;DHT22;27869;51.442;7.540;2024-03-29T02:18:40;8.10;99.90
42201;DHT22;27869;51.442;7.540;2024-03-29T02:21:08;8.10;99.90
42201;DHT22;27869;51.442;7.540;2024-03-29T02:23:37;8.10;99.90
42201;DHT22;27869;51.442;7.540;2024-03-29T02:26:08;8.10;99.90
42201;DHT22;27869;51.442;7.540;2024-03-29T02:28:35;8.10;99.90
42201;DHT22;27869;51.442;7.540;2024-03-29T02:31:02;8.20;99.90
42201;DHT22;27869;51.442;7.540;2024-03-29T02:33:29;8.20;99.90
42201;DHT22;27869;51.442;7.540;2024-03-29T02:35:56;8.20;99.90
42201;DHT22;27869;51.442;7.540;2024-03-29T02:38:23;8.20;99.90
42201;DHT22;27869;51.442;7.540;2024-03-29T02:40:50;8.30;99.90
42201;DHT22;27869;51.442;7.540;2024-03-29T02:43:18;8.30;99.90
42201;DHT22;27869;51.442;7.540;2024-03-29T02:45:44;8.30;99.90
42201;DHT22;27869;51.442;7.540;2024-03-29T02:48:11;8.40;99.90
42201;DHT22;27869;51.442;7.540;2024-03-29T02:50:37;8.40;99.90
42201;DHT22;27869;51.442;7.540;2024-03-29T02:53:04;8.40;99.90
42201;DHT22;27869;51.442;7.540;2024-03-29T02:55:31;8.50;99.90
42201;DHT22;27869;51.442;7.540;2024-03-29T02:57:57;8.50;99.90
42201;DHT22;27869;51.442;7.540;2024-03-29T03:00:25;8.60;99.90
42201;DHT22;27869;51.442;7.540;2024-03-29T03:02:50;8.60;99.90
42201;DHT22;27869;51.442;7.540;2024-03-29T03:05:17;8.60;99.90
42201;DHT22;27869;51.442;7.540;2024-03-29T03:07:46;8.70;99.90
42201;DHT22;27869;51.442;7.540;2024-03-29T03:10:30;8.70;99.90
42201;DHT22;27869;51.442;7.540;2024-03-29T03:13:14;8.70;99.90
42201;DHT22;27869;51.442;7.540;2024-03-29T03:15:42;8.80;99.90
42201;DHT22;27869;51.442;7.540;2024-03-29T03:18:08;8.80;99.90
42201;DHT22;27869;51.442;7.540;2024-03-29T03:20:35;8.80;99.90
42201;DHT22;27869;51.442;7.540;2024-03-29T03:23:03;8.90;99.90
42201;DHT22;27869;51.442;7.540;2024-03-29T03:25:30;8.90;99.90
42201;DHT22;27869;51.442;7.540;2024-03-29T03:27:56;8.90;99.90
42201;DHT22;27869;51.442;7.540;2024-03-29T03:30:23;8.90;99.90
42201;DHT22;27869;51.442;7.540;2024-03-29T03:32:50;8.90;99.90
42201;DHT22;27869;51.442;7.540;2024-03-29T03:35:17;9.00;99.90
42201;DHT22;27869;51.442;7.540;2024-03-29T03:37:43;8.90;99.90
42201;DHT22;27869;51.442;7.540;2024-03-29T03:40:10;8.90;99.90
42201;DHT22;27869;51.442;7.540;2024-03-29T03:42:36;8.90;99.90
42201;DHT22;27869;51.442;7.540;2024-03-29T03:45:04;8.90;99.90
42201;DHT22;27869;51.442;7.540;2024-03-29T03:47:29;8.90;99.90
42201;DHT22;27869;51.442;7.540;2024-03-29T03:49:58;8.90;99.90
42201;DHT22;27869;51.442;7.540;2024-03-29T03:52:23;8.90;99.90
42201;DHT22;27869;51.442;7.540;2024-03-29T03:54:50;8.90;99.90
42201;DHT22;27869;51.442;7.540;2024-03-29T03:57:16;8.80;99.90
42201;DHT22;27869;51.442;7.540;2024-03-29T03:59:43;8.80;99.90
42201;DHT22;27869;51.442;7.540;2024-03-29T04:02:09;8.80;99.90
42201;DHT22;27869;51.442;7.540;2024-03-29T04:04:36;8.80;99.90
42201;DHT22;27869;51.442;7.540;2024-03-29T04:07:03;8.80;99.90
42201;DHT22;27869;51.442;7.540;2024-03-29T04:09:30;8.80;99.90
42201;DHT22;27869;51.442;7.540;2024-03-29T04:11:56;8.80;99.90
42201;DHT22;27869;51.442;7.540;2024-03-29T04:14:23;8.80;99.90
42201;DHT22;27869;51.442;7.540;2024-03-29T04:16:49;8.70;99.90
42201;DHT22;27869;51.442;7.540;2024-03-29T04:19:16;8.70;99.90
42201;DHT22;27869;51.442;7.540;2024-03-29T04:21:42;8.70;99.90
42201;DHT22;27869;51.442;7.540;2024-03-29T04:24:10;8.60;99.90
42201;DHT22;27869;51.442;7.540;2024-03-29T04:26:36;8.60;99.90
42201;DHT22;27869;51.442;7.540;2024-03-29T04:29:04;8.60;99.90
42201;DHT22;27869;51.442;7.540;2024-03-29T04:31:30;8.60;99.90
42201;DHT22;27869;51.442;7.540;2024-03-29T04:33:56;8.60;99.90
42201;DHT22;27869;51.442;7.540;2024-03-29T04:36:22;8.60;99.90
42201;DHT22;27869;51.442;7.540;2024-03-29T04:38:49;8.50;99.90
42201;DHT22;27869;51.442;7.540;2024-03-29T04:41:18;8.50;99.90
42201;DHT22;27869;51.442;7.540;2024-03-29T04:43:44;8.50;99.90
42201;DHT22;27869;51.442;7.540;2024-03-29T04:46:13;8.50;99.90
42201;DHT22;27869;51.442;7.540;2024-03-29T04:48:41;8.50;99.90
42201;DHT22;27869;51.442;7.540;2024-03-29T04:51:08;8.40;99.90
42201;DHT22;27869;51.442;7.540;2024-03-29T04:53:35;8.40;99.90
42201;DHT22;27869;51.442;7.540;2024-03-29T04:56:02;8.40;99.90
42201;DHT22;27869;51.442;7.540;2024-03-29T04:58:31;8.40;99.90
42201;DHT22;27869;51.442;7.540;2024-03-29T05:00:58;8.40;99.90
42201;DHT22;27869;51.442;7.540;2024-03-29T05:03:25;8.30;99.90
42201;DHT22;27869;51.442;7.540;2024-03-29T05:05:52;8.30;99.90
42201;DHT22;27869;51.442;7.540;2024-03-29T05:08:20;8.30;99.90
42201;DHT22;27869;51.442;7.540;2024-03-29T05:10:48;8.30;99.90
42201;DHT22;27869;51.442;7.540;2024-03-29T05:13:15;8.30;99.90
42201;DHT22;27869;51.442;7.540;2024-03-29T05:15:44;8.20;99.90
42201;DHT22;27869;51.442;7.540;2024-03-29T05:18:10;8.20;99.90
42201;DHT22;27869;51.442;7.540;2024-03-29T05:20:37;8.20;99.90
42201;DHT22;27869;51.442;7.540;2024-03-29T05:23:06;8.20;99.90
42201;DHT22;27869;51.442;7.540;2024-03-29T05:25:33;8.20;99.90
42201;DHT22;27869;51.442;7.540;2024-03-29T05:28:01;8.10;99.90
42201;DHT22;27869;51.442;7.540;2024-03-29T05:30:28;8.10;99.90
42201;DHT22;27869;51.442;7.540;2024-03-29T05:32:56;8.10;99.90
42201;DHT22;27869;51.442;7.540;2024-03-29T05:35:23;8.10;99.90
42201;DHT22;27869;51.442;7.540;2024-03-29T05:37:50;8.00;99.90
42201;DHT22;27869;51.442;7.540;2024-03-29T05:40:19;8.00;99.90
42201;DHT22;27869;51.442;7.540;2024-03-29T05:42:50;8.00;99.90
42201;DHT22;27869;51.442;7.540;2024-03-29T05:45:26;8.00;99.90
42201;DHT22;27869;51.442;7.540;2024-03-29T05:47:53;8.00;99.90
42201;DHT22;27869;51.442;7.540;2024-03-29T05:50:21;8.00;99.90
42201;DHT22;27869;51.442;7.540;2024-03-29T05:52:48;8.00;99.90
42201;DHT22;27869;51.442;7.540;2024-03-29T05:55:15;8.00;99.90
42201;DHT22;27869;51.442;7.540;2024-03-29T05:57:43;7.90;99.90
42201;DHT22;27869;51.442;7.540;2024-03-29T06:00:12;7.90;99.90
42201;DHT22;27869;51.442;7.540;2024-03-29T06:02:40;7.90;99.90
42201;DHT22;27869;51.442;7.540;2024-03-29T06:05:08;7.90;99.90
42201;DHT22;27869;51.442;7.540;2024-03-29T06:07:37;7.90;99.90
42201;DHT22;27869;51.442;7.540;2024-03-29T06:10:04;7.90;99.90
42201;DHT22;27869;51.442;7.540;2024-03-29T06:12:33;7.90;99.90
42201;DHT22;27869;51.442;7.540;2024-03-29T06:15:01;7.90;99.90
42201;DHT22;27869;51.442;7.540;2024-03-29T06:17:48;7.90;99.90
42201;DHT22;27869;51.442;7.540;2024-03-29T06:20:15;7.90;99.90
42201;DHT22;27869;51.442;7.540;2024-03-29T06:22:43;7.90;99.90
42201;DHT22;27869;51.442;7.540;2024-03-29T06:25:10;7.90;99.90
42201;DHT22;27869;51.442;7.540;2024-03-29T06:27:37;7.90;99.90
42201;DHT22;27869;51.442;7.540;2024-03-29T06:30:05;7.90;99.90
42201;DHT22;27869;51.442;7.540;2024-03-29T06:32:33;7.90;99.90
42201;DHT22;27869;51.442;7.540;2024-03-29T06:35:00;7.90;99.90
42201;DHT22;27869;51.442;7.540;2024-03-29T06:37:28;8.00;99.90
42201;DHT22;27869;51.442;7.540;2024-03-29T06:39:56;7.90;99.90
42201;DHT22;27869;51.442;7.540;2024-03-29T06:42:23;8.00;99.90
42201;DHT22;27869;51.442;7.540;2024-03-29T06:44:50;8.00;99.90
42201;DHT22;27869;51.442;7.540;2024-03-29T06:47:17;8.00;99.90
42201;DHT22;27869;51.442;7.540;2024-03-29T06:49:44;8.00;99.90
42201;DHT22;27869;51.442;7.540;2024-03-29T06:52:12;8.00;99.90
42201;DHT22;27869;51.442;7.540;2024-03-29T06:54:38;8.00;99.90
42201;DHT22;27869;51.442;7.540;2024-03-29T06:57:07;8.00;99.90
42201;DHT22;27869;51.442;7.540;2024-03-29T06:59:35;8.10;99.90
42201;DHT22;27869;51.442;7.540;2024-03-29T07:02:02;8.00;99.90
42201;DHT22;27869;51.442;7.540;2024-03-29T07:04:29;8.10;99.90
42201;DHT22;27869;51.442;7.540;2024-03-29T07:06:56;8.10;99.90
42201;DHT22;27869;51.442;7.540;2024-03-29T07:09:23;8.10;99.90
42201;DHT22;27869;51.442;7.540;2024-03-29T07:11:51;8.20;99.90
42201;DHT22;27869;51.442;7.540;2024-03-29T07:14:19;8.20;99.90
42201;DHT22;27869;51.442;7.540;2024-03-29T07:16:49;8.30;99.90
42201;DHT22;27869;51.442;7.540;2024-03-29T07:19:15;8.30;99.90
42201;DHT22;27869;51.442;7.540;2024-03-29T07:21:44;8.30;99.90
42201;DHT22;27869;51.442;7.540;2024-03-29T07:24:11;8.30;99.90
42201;DHT22;27869;51.442;7.540;2024-03-29T07:26:38;8.30;99.90
42201;DHT22;27869;51.442;7.540;2024-03-29T07:29:05;8.40;99.90
42201;DHT22;27869;51.442;7.540;2024-03-29T07:31:33;8.40;99.90
42201;DHT22;27869;51.442;7.540;2024-03-29T07:34:00;8.50;99.90
42201;DHT22;27869;51.442;7.540;2024-03-29T07:36:27;8.50;99.90
42201;DHT22;27869;51.442;7.540;2024-03-29T07:39:00;8.60;99.90
42201;DHT22;27869;51.442;7.540;2024-03-29T07:41:27;8.60;99.90
42201;DHT22;27869;51.442;7.540;2024-03-29T07:43:55;8.70;99.90
42201;DHT22;27869;51.442;7.540;2024-03-29T07:46:28;8.70;99.90
42201;DHT22;27869;51.442;7.540;2024-03-29T07:48:57;8.70;99.90
42201;DHT22;27869;51.442;7.540;2024-03-29T07:51:24;8.80;99.90
42201;DHT22;27869;51.442;7.540;2024-03-29T07:53:51;8.80;99.90
42201;DHT22;27869;51.442;7.540;2024-03-29T07:56:18;8.90;99.90
42201;DHT22;27869;51.442;7.540;2024-03-29T07:58:49;8.90;99.90
42201;DHT22;27869;51.442;7.540;2024-03-29T08:01:18;8.90;99.90
42201;DHT22;27869;51.442;7.540;2024-03-29T08:03:45;9.00;99.90
42201;DHT22;27869;51.442;7.540;2024-03-29T08:06:14;9.00;99.90
42201;DHT22;27869;51.442;7.540;2024-03-29T08:08:42;9.00;99.90
42201;DHT22;27869;51.442;7.540;2024-03-29T08:11:09;9.10;99.90
42201;DHT22;27869;51.442;7.540;2024-03-29T08:13:37;9.10;99.90
42201;DHT22;27869;51.442;7.540;2024-03-29T08:16:05;9.20;99.90
42201;DHT22;27869;51.442;7.540;2024-03-29T08:18:32;9.20;99.90
42201;DHT22;27869;51.442;7.540;2024-03-29T08:21:00;9.20;99.90
42201;DHT22;27869;51.442;7.540;2024-03-29T08:23:29;9.20;99.90
42201;DHT22;27869;51.442;7.540;2024-03-29T08:25:56;9.30;99.90
42201;DHT22;27869;51.442;7.540;2024-03-29T08:28:23;9.30;99.90
42201;DHT22;27869;51.442;7.540;2024-03-29T08:30:59;9.40;99.90
42201;DHT22;27869;51.442;7.540;2024-03-29T08:33:29;9.40;99.90
42201;DHT22;27869;51.442;7.540;2024-03-29T08:35:57;9.50;99.90
42201;DHT22;27869;51.442;7.540;2024-03-29T08:38:24;9.50;99.90
42201;DHT22;27869;51.442;7.540;2024-03-29T08:40:53;9.50;99.90
42201;DHT22;27869;51.442;7.540;2024-03-29T08:43:20;9.50;99.90
42201;DHT22;27869;51.442;7.540;2024-03-29T08:45:47;9.60;99.90
42201;DHT22;27869;51.442;7.540;2024-03-29T08:48:14;9.60;99.90
42201;DHT22;27869;51.442;7.540;2024-03-29T08:50:41;9.60;99.90
42201;DHT22;27869;51.442;7.540;2024-03-29T08:53:08;9.70;99.90
42201;DHT22;27869;51.442;7.540;2024-03-29T08:55:35;9.80;99.90
42201;DHT22;27869;51.442;7.540;2024-03-29T08:58:06;9.80;99.90
42201;DHT22;27869;51.442;7.540;2024-03-29T09:00:33;9.80;99.90
42201;DHT22;27869;51.442;7.540;2024-03-29T09:03:00;9.80;99.90
42201;DHT22;27869;51.442;7.540;2024-03-29T09:05:27;9.90;99.90
42201;DHT22;27869;51.442;7.540;2024-03-29T09:07:55;9.90;99.90
42201;DHT22;27869;51.442;7.540;2024-03-29T09:10:22;10.00;99.90
42201;DHT22;27869;51.442;7.540;2024-03-29T09:12:49;10.00;99.90
42201;DHT22;27869;51.442;7.540;2024-03-29T09:15:18;10.10;99.90
42201;DHT22;27869;51.442;7.540;2024-03-29T09:17:45;10.10;99.90
42201;DHT22;27869;51.442;7.540;2024-03-29T09:20:12;10.20;99.90
42201;DHT22;27869;51.442;7.540;2024-03-29T09:22:39;10.20;99.90
42201;DHT22;27869;51.442;7.540;2024-03-29T09:25:07;10.20;99.90
42201;DHT22;27869;51.442;7.540;2024-03-29T09:27:36;10.30;99.90
42201;DHT22;27869;51.442;7.540;2024-03-29T09:30:06;10.40;99.90
42201;DHT22;27869;51.442;7.540;2024-03-29T09:32:36;10.50;99.90
42201;DHT22;27869;51.442;7.540;2024-03-29T09:35:03;10.50;99.90
42201;DHT22;27869;51.442;7.540;2024-03-29T09:37:30;10.50;99.90
42201;DHT22;27869;51.442;7.540;2024-03-29T09:40:02;10.60;99.90
42201;DHT22;27869;51.442;7.540;2024-03-29T09:42:32;10.60;99.90
42201;DHT22;27869;51.442;7.540;2024-03-29T09:44:59;10.70;99.90
42201;DHT22;27869;51.442;7.540;2024-03-29T09:47:31;10.70;99.90
42201;DHT22;27869;51.442;7.540;2024-03-29T09:50:00;10.80;99.90
42201;DHT22;27869;51.442;7.540;2024-03-29T09:52:28;10.80;99.90
42201;DHT22;27869;51.442;7.540;2024-03-29T09:54:55;10.90;99.90
42201;DHT22;27869;51.442;7.540;2024-03-29T09:57:23;10.90;99.90
42201;DHT22;27869;51.442;7.540;2024-03-29T09:59:55;11.00;99.90
42201;DHT22;27869;51.442;7.540;2024-03-29T10:02:22;11.10;99.90
42201;DHT22;27869;51.442;7.540;2024-03-29T10:04:54;11.10;99.90
42201;DHT22;27869;51.442;7.540;2024-03-29T10:07:24;11.30;99.90
42201;DHT22;27869;51.442;7.540;2024-03-29T10:09:51;11.30;99.90
42201;DHT22;27869;51.442;7.540;2024-03-29T10:12:18;11.40;99.90
42201;DHT22;27869;51.442;7.540;2024-03-29T10:14:45;11.40;99.90
42201;DHT22;27869;51.442;7.540;2024-03-29T10:17:15;11.50;99.90
42201;DHT22;27869;51.442;7.540;2024-03-29T10:19:43;11.60;99.90
42201;DHT22;27869;51.442;7.540;2024-03-29T10:22:10;11.60;99.90
42201;DHT22;27869;51.442;7.540;2024-03-29T10:24:39;11.70;99.90
42201;DHT22;27869;51.442;7.540;2024-03-29T10:27:06;11.70;99.90
42201;DHT22;27869;51.442;7.540;2024-03-29T10:29:34;11.80;99.90
42201;DHT22;27869;51.442;7.540;2024-03-29T10:32:00;11.80;99.90
42201;DHT22;27869;51.442;7.540;2024-03-29T10:34:29;11.90;99.90
42201;DHT22;27869;51.442;7.540;2024-03-29T10:37:01;11.90;99.90
42201;DHT22;27869;51.442;7.540;2024-03-29T10:39:29;11.90;99.90
42201;DHT22;27869;51.442;7.540;2024-03-29T10:41:59;12.00;99.90
42201;DHT22;27869;51.442;7.540;2024-03-29T10:44:26;12.00;99.90
42201;DHT22;27869;51.442;7.540;2024-03-29T10:46:56;12.10;99.90
42201;DHT22;27869;51.442;7.540;2024-03-29T10:49:23;12.10;99.90
42201;DHT22;27869;51.442;7.540;2024-03-29T10:51:50;12.20;99.90
42201;DHT22;27869;51.442;7.540;2024-03-29T10:54:19;12.20;99.90
42201;DHT22;27869;51.442;7.540;2024-03-29T10:56:47;12.30;99.90
42201;DHT22;27869;51.442;7.540;2024-03-29T10:59:25;12.30;99.90
42201;DHT22;27869;51.442;7.540;2024-03-29T11:01:56;12.40;99.90
42201;DHT22;27869;51.442;7.540;2024-03-29T11:04:29;12.30;99.90
42201;DHT22;27869;51.442;7.540;2024-03-29T11:07:06;12.40;99.90
42201;DHT22;27869;51.442;7.540;2024-03-29T11:09:34;12.50;99.90
42201;DHT22;27869;51.442;7.540;2024-03-29T11:12:02;12.50;99.90
42201;DHT22;27869;51.442;7.540;2024-03-29T11:14:39;12.60;99.90
42201;DHT22;27869;51.442;7.540;2024-03-29T11:17:09;12.70;99.90
42201;DHT22;27869;51.442;7.540;2024-03-29T11:19:38;12.80;99.90
42201;DHT22;27869;51.442;7.540;2024-03-29T11:22:06;12.80;99.90
42201;DHT22;27869;51.442;7.540;2024-03-29T11:24:33;12.90;99.90
42201;DHT22;27869;51.442;7.540;2024-03-29T11:27:07;12.90;99.90
42201;DHT22;27869;51.442;7.540;2024-03-29T11:29:36;13.00;99.90
42201;DHT22;27869;51.442;7.540;2024-03-29T11:32:06;13.00;99.90
42201;DHT22;27869;51.442;7.540;2024-03-29T11:34:33;13.00;99.90
42201;DHT22;27869;51.442;7.540;2024-03-29T11:37:06;13.00;99.90
42201;DHT22;27869;51.442;7.540;2024-03-29T11:39:34;13.10;99.90
42201;DHT22;27869;51.442;7.540;2024-03-29T11:42:01;13.10;99.90
42201;DHT22;27869;51.442;7.540;2024-03-29T11:44:29;13.20;99.90
42201;DHT22;27869;51.442;7.540;2024-03-29T11:46:58;13.20;99.90
42201;DHT22;27869;51.442;7.540;2024-03-29T11:49:26;13.30;99.90
42201;DHT22;27869;51.442;7.540;2024-03-29T11:52:02;13.30;99.90
42201;DHT22;27869;51.442;7.540;2024-03-29T11:54:36;13.30;99.90
42201;DHT22;27869;51.442;7.540;2024-03-29T11:57:04;13.30;99.90
42201;DHT22;27869;51.442;7.540;2024-03-29T11:59:30;13.40;99.90
42201;DHT22;27869;51.442;7.540;2024-03-29T12:01:59;13.40;99.90
42201;DHT22;27869;51.442;7.540;2024-03-29T12:04:26;13.40;99.90
42201;DHT22;27869;51.442;7.540;2024-03-29T12:06:53;13.50;99.90
42201;DHT22;27869;51.442;7.540;2024-03-29T12:09:20;13.50;99.90
42201;DHT22;27869;51.442;7.540;2024-03-29T12:11:47;13.50;99.90
42201;DHT22;27869;51.442;7.540;2024-03-29T12:14:16;13.50;99.90
42201;DHT22;27869;51.442;7.540;2024-03-29T12:16:43;13.50;99.90
42201;DHT22;27869;51.442;7.540;2024-03-29T12:19:22;13.50;99.90
42201;DHT22;27869;51.442;7.540;2024-03-29T12:21:50;13.50;99.90
42201;DHT22;27869;51.442;7.540;2024-03-29T12:24:17;13.50;99.90
42201;DHT22;27869;51.442;7.540;2024-03-29T12:26:44;13.50;99.90
42201;DHT22;27869;51.442;7.540;2024-03-29T12:29:11;13.50;99.90
42201;DHT22;27869;51.442;7.540;2024-03-29T12:31:38;13.60;99.90
42201;DHT22;27869;51.442;7.540;2024-03-29T12:34:04;13.60;99.90
42201;DHT22;27869;51.442;7.540;2024-03-29T12:36:34;13.60;99.90
42201;DHT22;27869;51.442;7.540;2024-03-29T12:39:01;13.60;99.90
42201;DHT22;27869;51.442;7.540;2024-03-29T12:41:31;13.60;99.90
42201;DHT22;27869;51.442;7.540;2024-03-29T12:44:00;13.60;99.90
42201;DHT22;27869;51.442;7.540;2024-03-29T12:46:27;13.60;99.90
42201;DHT22;27869;51.442;7.540;2024-03-29T12:48:58;13.50;99.90
42201;DHT22;27869;51.442;7.540;2024-03-29T12:51:26;13.40;99.90
42201;DHT22;27869;51.442;7.540;2024-03-29T12:53:54;13.30;99.90
42201;DHT22;27869;51.442;7.540;2024-03-29T12:56:26;13.20;99.90
42201;DHT22;27869;51.442;7.540;2024-03-29T12:58:53;13.20;99.90
42201;DHT22;27869;51.442;7.540;2024-03-29T13:01:20;13.10;99.90
42201;DHT22;27869;51.442;7.540;2024-03-29T13:03:47;13.10;99.90
42201;DHT22;27869;51.442;7.540;2024-03-29T13:06:14;13.00;99.90
42201;DHT22;27869;51.442;7.540;2024-03-29T13:08:41;13.00;99.90
42201;DHT22;27869;51.442;7.540;2024-03-29T13:11:09;13.00;99.90
42201;DHT22;27869;51.442;7.540;2024-03-29T13:13:36;13.00;99.90
42201;DHT22;27869;51.442;7.540;2024-03-29T13:16:04;13.00;99.90
42201;DHT22;27869;51.442;7.540;2024-03-29T13:18:31;13.00;99.90
42201;DHT22;27869;51.442;7.540;2024-03-29T13:20:57;13.00;99.90
42201;DHT22;27869;51.442;7.540;2024-03-29T13:23:27;13.00;99.90
42201;DHT22;27869;51.442;7.540;2024-03-29T13:25:56;13.00;99.90
42201;DHT22;27869;51.442;7.540;2024-03-29T13:28:24;13.00;99.90
42201;DHT22;27869;51.442;7.540;2024-03-29T13:30:51;13.10;99.90
42201;DHT22;27869;51.442;7.540;2024-03-29T13:33:18;13.10;99.90
42201;DHT22;27869;51.442;7.540;2024-03-29T13:35:45;13.10;99.90
42201;DHT22;27869;51.442;7.540;2024-03-29T13:38:12;13.10;99.90
42201;DHT22;27869;51.442;7.540;2024-03-29T13:40:39;13.20;99.90
42201;DHT22;27869;51.442;7.540;2024-03-29T13:43:06;13.20;99.90
42201;DHT22;27869;51.442;7.540;2024-03-29T13:45:35;13.20;99.90
42201;DHT22;27869;51.442;7.540;2024-03-29T13:48:01;13.20;99.90
42201;DHT22;27869;51.442;7.540;2024-03-29T13:50:28;13.30;99.90
42201;DHT22;27869;51.442;7.540;2024-03-29T13:52:55;13.30;99.90
42201;DHT22;27869;51.442;7.540;2024-03-29T13:55:22;13.30;99.90
42201;DHT22;27869;51.442;7.540;2024-03-29T13:57:51;13.30;99.90
42201;DHT22;27869;51.442;7.540;2024-03-29T14:00:18;13.40;99.90
42201;DHT22;27869;51.442;7.540;2024-03-29T14:02:47;13.40;99.90
42201;DHT22;27869;51.442;7.540;2024-03-29T14:05:14;13.40;99.90
42201;DHT22;27869;51.442;7.540;2024-03-29T14:07:41;13.40;99.90
42201;DHT22;27869;51.442;7.540;2024-03-29T14:10:09;13.40;99.90
42201;DHT22;27869;51.442;7.540;2024-03-29T14:12:36;13.40;99.90
42201;DHT22;27869;51.442;7.540;2024-03-29T14:15:03;13.50;99.90
42201;DHT22;27869;51.442;7.540;2024-03-29T14:17:32;13.50;99.90
42201;DHT22;27869;51.442;7.540;2024-03-29T14:20:00;13.50;99.90
42201;DHT22;27869;51.442;7.540;2024-03-29T14:22:27;13.50;99.90
42201;DHT22;27869;51.442;7.540;2024-03-29T14:24:57;13.50;99.90
42201;DHT22;27869;51.442;7.540;2024-03-29T14:27:24;13.50;99.90
42201;DHT22;27869;51.442;7.540;2024-03-29T14:29:50;13.50;99.90
42201;DHT22;27869;51.442;7.540;2024-03-29T14:32:20;13.50;99.90
42201;DHT22;27869;51.442;7.540;2024-03-29T14:34:47;13.50;99.90
42201;DHT22;27869;51.442;7.540;2024-03-29T14:37:15;13.50;99.90
42201;DHT22;27869;51.442;7.540;2024-03-29T14:39:42;13.50;99.90
42201;DHT22;27869;51.442;7.540;2024-03-29T14:42:10;13.50;99.90
42201;DHT22;27869;51.442;7.540;2024-03-29T14:44:39;13.50;99.90
42201;DHT22;27869;51.442;7.540;2024-03-29T14:47:06;13.50;99.90
42201;DHT22;27869;51.442;7.540;2024-03-29T14:49:33;13.50;99.90
42201;DHT22;27869;51.442;7.540;2024-03-29T14:52:00;13.50;99.90
42201;DHT22;27869;51.442;7.540;2024-03-29T14:54:28;13.50;99.90
42201;DHT22;27869;51.442;7.540;2024-03-29T14:56:55;13.50;99.90
42201;DHT22;27869;51.442;7.540;2024-03-29T14:59:22;13.50;99.90
42201;DHT22;27869;51.442;7.540;2024-03-29T15:01:49;13.60;99.90
42201;DHT22;27869;51.442;7.540;2024-03-29T15:04:16;13.60;99.90
42201;DHT22;27869;51.442;7.540;2024-03-29T15:06:43;13.60;99.90
42201;DHT22;27869;51.442;7.540;2024-03-29T15:09:11;13.60;99.90
42201;DHT22;27869;51.442;7.540;2024-03-29T15:11:40;13.60;99.90
42201;DHT22;27869;51.442;7.540;2024-03-29T15:14:07;13.60;99.90
42201;DHT22;27869;51.442;7.540;2024-03-29T15:16:36;13.60;99.90
42201;DHT22;27869;51.442;7.540;2024-03-29T15:19:03;13.60;99.90
42201;DHT22;27869;51.442;7.540;2024-03-29T15:21:30;13.60;99.90
42201;DHT22;27869;51.442;7.540;2024-03-29T15:23:57;13.60;99.90
42201;DHT22;27869;51.442;7.540;2024-03-29T15:26:23;13.60;99.90
42201;DHT22;27869;51.442;7.540;2024-03-29T15:28:52;13.60;99.90
42201;DHT22;27869;51.442;7.540;2024-03-29T15:31:34;13.60;99.90
42201;DHT22;27869;51.442;7.540;2024-03-29T15:34:01;13.60;99.90
42201;DHT22;27869;51.442;7.540;2024-03-29T15:36:28;13.60;99.90
42201;DHT22;27869;51.442;7.540;2024-03-29T15:38:55;13.60;99.90
42201;DHT22;27869;51.442;7.540;2024-03-29T15:41:30;13.60;99.90
42201;DHT22;27869;51.442;7.540;2024-03-29T15:43:58;13.70;99.90